sensor_id;sensor_type;location;lat;lon;timestamp;P1;durP1;ratioP1;P2;durP2;ratioP2
17145;SDS011;8688;54.444;18.444;2023-03-24T00:00:24;6.27;;;2.87;;
17145;SDS011;8688;54.444;18.444;2023-03-24T00:02:52;6.80;;;3.05;;
17145;SDS011;8688;54.444;18.444;2023-03-24T00:05:21;5.47;;;3.30;;
17145;SDS011;8688;54.444;18.444;2023-03-24T00:07:49;6.57;;;2.80;;
17145;SDS011;8688;54.444;18.444;2023-03-24T00:10:18;6.47;;;3.40;;
17145;SDS011;8688;54.444;18.444;2023-03-24T00:12:47;6.43;;;2.95;;
17145;SDS011;8688;54.444;18.444;2023-03-24T00:15:15;6.17;;;3.13;;
17145;SDS011;8688;54.444;18.444;2023-03-24T00:17:45;7.10;;;2.90;;
17145;SDS011;8688;54.444;18.444;2023-03-24T00:20:14;5.30;;;2.93;;
17145;SDS011;8688;54.444;18.444;2023-03-24T00:22:44;5.47;;;3.03;;
17145;SDS011;8688;54.444;18.444;2023-03-24T00:25:15;4.67;;;2.63;;
17145;SDS011;8688;54.444;18.444;2023-03-24T00:27:48;7.13;;;3.20;;
17145;SDS011;8688;54.444;18.444;2023-03-24T00:30:16;8.07;;;2.90;;
17145;SDS011;8688;54.444;18.444;2023-03-24T00:32:45;5.40;;;3.10;;
17145;SDS011;8688;54.444;18.444;2023-03-24T00:35:13;4.87;;;3.10;;
17145;SDS011;8688;54.444;18.444;2023-03-24T00:37:42;4.60;;;3.03;;
17145;SDS011;8688;54.444;18.444;2023-03-24T00:40:10;6.17;;;2.93;;
17145;SDS011;8688;54.444;18.444;2023-03-24T00:42:42;5.93;;;3.23;;
17145;SDS011;8688;54.444;18.444;2023-03-24T00:45:11;5.67;;;3.03;;
17145;SDS011;8688;54.444;18.444;2023-03-24T00:47:40;6.40;;;3.30;;
17145;SDS011;8688;54.444;18.444;2023-03-24T00:50:11;4.33;;;3.20;;
17145;SDS011;8688;54.444;18.444;2023-03-24T00:52:41;6.10;;;3.20;;
17145;SDS011;8688;54.444;18.444;2023-03-24T00:55:12;4.77;;;3.07;;
17145;SDS011;8688;54.444;18.444;2023-03-24T00:57:43;4.97;;;2.90;;
17145;SDS011;8688;54.444;18.444;2023-03-24T01:00:15;6.47;;;3.33;;
17145;SDS011;8688;54.444;18.444;2023-03-24T01:02:45;6.37;;;3.20;;
17145;SDS011;8688;54.444;18.444;2023-03-24T01:05:17;6.13;;;3.40;;
17145;SDS011;8688;54.444;18.444;2023-03-24T01:07:45;6.47;;;3.40;;
17145;SDS011;8688;54.444;18.444;2023-03-24T01:10:16;4.63;;;3.30;;
17145;SDS011;8688;54.444;18.444;2023-03-24T01:12:47;7.47;;;3.60;;
17145;SDS011;8688;54.444;18.444;2023-03-24T01:15:15;5.60;;;3.13;;
17145;SDS011;8688;54.444;18.444;2023-03-24T01:17:44;4.57;;;2.90;;
17145;SDS011;8688;54.444;18.444;2023-03-24T01:20:13;8.77;;;3.10;;
17145;SDS011;8688;54.444;18.444;2023-03-24T01:22:41;8.17;;;3.70;;
17145;SDS011;8688;54.444;18.444;2023-03-24T01:25:10;5.43;;;3.53;;
17145;SDS011;8688;54.444;18.444;2023-03-24T01:27:40;5.27;;;3.33;;
17145;SDS011;8688;54.444;18.444;2023-03-24T01:30:11;6.77;;;3.50;;
17145;SDS011;8688;54.444;18.444;2023-03-24T01:32:41;6.07;;;3.37;;
17145;SDS011;8688;54.444;18.444;2023-03-24T01:35:09;7.13;;;3.57;;
17145;SDS011;8688;54.444;18.444;2023-03-24T01:37:37;6.40;;;3.43;;
17145;SDS011;8688;54.444;18.444;2023-03-24T01:40:05;5.17;;;3.03;;
17145;SDS011;8688;54.444;18.444;2023-03-24T01:42:34;7.13;;;3.77;;
17145;SDS011;8688;54.444;18.444;2023-03-24T01:48:10;6.73;;;3.60;;
17145;SDS011;8688;54.444;18.444;2023-03-24T01:50:41;8.00;;;3.60;;
17145;SDS011;8688;54.444;18.444;2023-03-24T01:53:11;9.43;;;3.87;;
17145;SDS011;8688;54.444;18.444;2023-03-24T01:55:39;5.80;;;3.77;;
17145;SDS011;8688;54.444;18.444;2023-03-24T01:58:10;10.00;;;4.30;;
17145;SDS011;8688;54.444;18.444;2023-03-24T02:00:39;6.57;;;3.70;;
17145;SDS011;8688;54.444;18.444;2023-03-24T02:03:10;7.00;;;4.00;;
17145;SDS011;8688;54.444;18.444;2023-03-24T02:05:49;7.37;;;4.07;;
17145;SDS011;8688;54.444;18.444;2023-03-24T02:08:20;7.53;;;4.13;;
17145;SDS011;8688;54.444;18.444;2023-03-24T02:10:52;8.60;;;4.33;;
17145;SDS011;8688;54.444;18.444;2023-03-24T02:13:20;7.07;;;3.97;;
17145;SDS011;8688;54.444;18.444;2023-03-24T02:15:53;8.80;;;5.00;;
17145;SDS011;8688;54.444;18.444;2023-03-24T02:18:29;10.17;;;5.03;;
17145;SDS011;8688;54.444;18.444;2023-03-24T02:21:09;11.53;;;6.10;;
17145;SDS011;8688;54.444;18.444;2023-03-24T02:24:12;11.13;;;6.03;;
17145;SDS011;8688;54.444;18.444;2023-03-24T02:27:06;10.67;;;6.30;;
17145;SDS011;8688;54.444;18.444;2023-03-24T02:29:57;12.50;;;6.27;;
17145;SDS011;8688;54.444;18.444;2023-03-24T02:35:58;12.63;;;7.27;;
17145;SDS011;8688;54.444;18.444;2023-03-24T02:42:03;14.20;;;7.77;;
17145;SDS011;8688;54.444;18.444;2023-03-24T02:44:40;13.60;;;8.10;;
17145;SDS011;8688;54.444;18.444;2023-03-24T02:47:14;13.13;;;7.83;;
17145;SDS011;8688;54.444;18.444;2023-03-24T02:49:45;14.10;;;8.17;;
17145;SDS011;8688;54.444;18.444;2023-03-24T02:52:22;13.43;;;8.20;;
17145;SDS011;8688;54.444;18.444;2023-03-24T02:55:00;12.83;;;8.60;;
17145;SDS011;8688;54.444;18.444;2023-03-24T02:57:33;14.40;;;8.53;;
17145;SDS011;8688;54.444;18.444;2023-03-24T03:00:07;13.87;;;8.37;;
17145;SDS011;8688;54.444;18.444;2023-03-24T03:02:42;14.33;;;7.93;;
17145;SDS011;8688;54.444;18.444;2023-03-24T03:05:15;14.80;;;8.67;;
17145;SDS011;8688;54.444;18.444;2023-03-24T03:07:48;13.90;;;8.63;;
17145;SDS011;8688;54.444;18.444;2023-03-24T03:10:20;11.27;;;8.30;;
17145;SDS011;8688;54.444;18.444;2023-03-24T03:12:50;14.83;;;8.50;;
17145;SDS011;8688;54.444;18.444;2023-03-24T03:15:22;15.23;;;8.50;;
17145;SDS011;8688;54.444;18.444;2023-03-24T03:17:52;16.97;;;9.57;;
17145;SDS011;8688;54.444;18.444;2023-03-24T03:20:24;15.77;;;9.30;;
17145;SDS011;8688;54.444;18.444;2023-03-24T03:22:59;14.50;;;9.53;;
17145;SDS011;8688;54.444;18.444;2023-03-24T03:25:33;18.67;;;9.83;;
17145;SDS011;8688;54.444;18.444;2023-03-24T03:28:06;17.77;;;9.97;;
17145;SDS011;8688;54.444;18.444;2023-03-24T03:30:36;16.70;;;10.23;;
17145;SDS011;8688;54.444;18.444;2023-03-24T03:33:08;17.50;;;10.10;;
17145;SDS011;8688;54.444;18.444;2023-03-24T03:35:43;18.80;;;10.40;;
17145;SDS011;8688;54.444;18.444;2023-03-24T03:38:16;17.63;;;10.50;;
17145;SDS011;8688;54.444;18.444;2023-03-24T03:40:50;20.80;;;10.53;;
17145;SDS011;8688;54.444;18.444;2023-03-24T03:43:19;17.43;;;10.43;;
17145;SDS011;8688;54.444;18.444;2023-03-24T03:45:48;18.37;;;10.70;;
17145;SDS011;8688;54.444;18.444;2023-03-24T03:48:15;18.67;;;10.60;;
17145;SDS011;8688;54.444;18.444;2023-03-24T03:50:43;20.40;;;11.03;;
17145;SDS011;8688;54.444;18.444;2023-03-24T03:53:11;20.17;;;11.00;;
17145;SDS011;8688;54.444;18.444;2023-03-24T03:55:42;22.87;;;11.93;;
17145;SDS011;8688;54.444;18.444;2023-03-24T03:58:12;18.50;;;11.10;;
17145;SDS011;8688;54.444;18.444;2023-03-24T04:00:40;17.57;;;11.40;;
17145;SDS011;8688;54.444;18.444;2023-03-24T04:03:16;20.47;;;12.07;;
17145;SDS011;8688;54.444;18.444;2023-03-24T04:05:59;22.83;;;12.30;;
17145;SDS011;8688;54.444;18.444;2023-03-24T04:08:33;27.80;;;12.17;;
17145;SDS011;8688;54.444;18.444;2023-03-24T04:11:23;20.30;;;11.77;;
17145;SDS011;8688;54.444;18.444;2023-03-24T04:14:04;22.13;;;11.87;;
17145;SDS011;8688;54.444;18.444;2023-03-24T04:16:45;20.93;;;11.67;;
17145;SDS011;8688;54.444;18.444;2023-03-24T04:19:24;21.63;;;11.90;;
17145;SDS011;8688;54.444;18.444;2023-03-24T04:22:12;22.00;;;11.57;;
17145;SDS011;8688;54.444;18.444;2023-03-24T04:24:51;19.93;;;11.50;;
17145;SDS011;8688;54.444;18.444;2023-03-24T04:27:24;21.00;;;11.23;;
17145;SDS011;8688;54.444;18.444;2023-03-24T04:30:05;19.40;;;10.67;;
17145;SDS011;8688;54.444;18.444;2023-03-24T04:32:42;18.97;;;10.73;;
17145;SDS011;8688;54.444;18.444;2023-03-24T04:35:17;20.10;;;11.30;;
17145;SDS011;8688;54.444;18.444;2023-03-24T04:37:55;18.63;;;10.83;;
17145;SDS011;8688;54.444;18.444;2023-03-24T04:40:28;18.87;;;10.27;;
17145;SDS011;8688;54.444;18.444;2023-03-24T04:42:59;19.27;;;10.87;;
17145;SDS011;8688;54.444;18.444;2023-03-24T04:45:31;17.37;;;10.50;;
17145;SDS011;8688;54.444;18.444;2023-03-24T04:48:01;20.73;;;10.90;;
17145;SDS011;8688;54.444;18.444;2023-03-24T04:50:30;18.70;;;11.37;;
17145;SDS011;8688;54.444;18.444;2023-03-24T04:53:01;18.50;;;10.50;;
17145;SDS011;8688;54.444;18.444;2023-03-24T04:55:36;18.02;;;10.75;;
17145;SDS011;8688;54.444;18.444;2023-03-24T04:58:18;20.40;;;11.80;;
17145;SDS011;8688;54.444;18.444;2023-03-24T05:00:49;17.63;;;10.60;;
17145;SDS011;8688;54.444;18.444;2023-03-24T05:03:17;17.20;;;10.20;;
17145;SDS011;8688;54.444;18.444;2023-03-24T05:05:45;17.23;;;11.05;;
17145;SDS011;8688;54.444;18.444;2023-03-24T05:08:13;19.97;;;10.90;;
17145;SDS011;8688;54.444;18.444;2023-03-24T05:10:41;16.87;;;10.40;;
17145;SDS011;8688;54.444;18.444;2023-03-24T05:13:09;14.90;;;9.63;;
17145;SDS011;8688;54.444;18.444;2023-03-24T05:15:37;19.30;;;10.60;;
17145;SDS011;8688;54.444;18.444;2023-03-24T05:18:06;16.20;;;9.87;;
17145;SDS011;8688;54.444;18.444;2023-03-24T05:20:34;16.37;;;10.67;;
17145;SDS011;8688;54.444;18.444;2023-03-24T05:23:01;18.37;;;10.80;;
17145;SDS011;8688;54.444;18.444;2023-03-24T05:25:29;18.65;;;10.75;;
17145;SDS011;8688;54.444;18.444;2023-03-24T05:27:56;17.30;;;10.83;;
17145;SDS011;8688;54.444;18.444;2023-03-24T05:30:23;19.63;;;10.47;;
17145;SDS011;8688;54.444;18.444;2023-03-24T05:32:51;18.58;;;10.57;;
17145;SDS011;8688;54.444;18.444;2023-03-24T05:35:20;17.37;;;10.67;;
17145;SDS011;8688;54.444;18.444;2023-03-24T05:37:48;15.83;;;9.77;;
17145;SDS011;8688;54.444;18.444;2023-03-24T05:40:16;15.37;;;9.27;;
17145;SDS011;8688;54.444;18.444;2023-03-24T05:42:44;14.27;;;9.60;;
17145;SDS011;8688;54.444;18.444;2023-03-24T05:45:13;14.00;;;8.47;;
17145;SDS011;8688;54.444;18.444;2023-03-24T05:47:41;14.80;;;8.90;;
17145;SDS011;8688;54.444;18.444;2023-03-24T05:50:09;16.80;;;9.30;;
17145;SDS011;8688;54.444;18.444;2023-03-24T05:52:38;13.48;;;8.73;;
17145;SDS011;8688;54.444;18.444;2023-03-24T05:55:05;12.70;;;8.30;;
17145;SDS011;8688;54.444;18.444;2023-03-24T05:57:33;12.63;;;7.57;;
17145;SDS011;8688;54.444;18.444;2023-03-24T06:00:01;11.67;;;7.73;;
17145;SDS011;8688;54.444;18.444;2023-03-24T06:02:32;13.03;;;8.53;;
17145;SDS011;8688;54.444;18.444;2023-03-24T06:05:00;14.40;;;7.55;;
17145;SDS011;8688;54.444;18.444;2023-03-24T06:07:28;12.17;;;7.43;;
17145;SDS011;8688;54.444;18.444;2023-03-24T06:09:57;12.83;;;7.60;;
17145;SDS011;8688;54.444;18.444;2023-03-24T06:12:27;12.63;;;7.72;;
17145;SDS011;8688;54.444;18.444;2023-03-24T06:14:55;15.15;;;8.70;;
17145;SDS011;8688;54.444;18.444;2023-03-24T06:17:23;15.10;;;8.20;;
17145;SDS011;8688;54.444;18.444;2023-03-24T06:19:52;16.23;;;8.07;;
17145;SDS011;8688;54.444;18.444;2023-03-24T06:22:28;13.77;;;7.78;;
17145;SDS011;8688;54.444;18.444;2023-03-24T06:24:57;13.43;;;7.93;;
17145;SDS011;8688;54.444;18.444;2023-03-24T06:27:26;14.15;;;8.40;;
17145;SDS011;8688;54.444;18.444;2023-03-24T06:29:54;14.82;;;8.50;;
17145;SDS011;8688;54.444;18.444;2023-03-24T06:32:22;15.50;;;8.00;;
17145;SDS011;8688;54.444;18.444;2023-03-24T06:34:50;14.32;;;7.82;;
17145;SDS011;8688;54.444;18.444;2023-03-24T06:37:17;12.38;;;7.95;;
17145;SDS011;8688;54.444;18.444;2023-03-24T06:39:47;12.23;;;7.82;;
17145;SDS011;8688;54.444;18.444;2023-03-24T06:42:16;13.85;;;7.63;;
17145;SDS011;8688;54.444;18.444;2023-03-24T06:44:44;13.20;;;7.70;;
17145;SDS011;8688;54.444;18.444;2023-03-24T06:47:11;12.23;;;7.05;;
17145;SDS011;8688;54.444;18.444;2023-03-24T06:49:39;13.80;;;7.15;;
17145;SDS011;8688;54.444;18.444;2023-03-24T06:52:07;12.88;;;7.22;;
17145;SDS011;8688;54.444;18.444;2023-03-24T06:54:34;11.18;;;6.50;;
17145;SDS011;8688;54.444;18.444;2023-03-24T06:57:02;10.63;;;6.70;;
17145;SDS011;8688;54.444;18.444;2023-03-24T06:59:31;8.88;;;6.05;;
17145;SDS011;8688;54.444;18.444;2023-03-24T07:01:58;11.07;;;6.25;;
17145;SDS011;8688;54.444;18.444;2023-03-24T07:04:26;12.77;;;6.32;;
17145;SDS011;8688;54.444;18.444;2023-03-24T07:07:00;8.20;;;5.35;;
17145;SDS011;8688;54.444;18.444;2023-03-24T07:09:29;8.60;;;5.75;;
17145;SDS011;8688;54.444;18.444;2023-03-24T07:11:56;8.32;;;5.50;;
17145;SDS011;8688;54.444;18.444;2023-03-24T07:14:24;9.32;;;5.22;;
17145;SDS011;8688;54.444;18.444;2023-03-24T07:16:53;9.10;;;5.30;;
17145;SDS011;8688;54.444;18.444;2023-03-24T07:19:21;8.38;;;5.40;;
17145;SDS011;8688;54.444;18.444;2023-03-24T07:21:48;10.18;;;5.22;;
17145;SDS011;8688;54.444;18.444;2023-03-24T07:24:16;7.18;;;4.90;;
17145;SDS011;8688;54.444;18.444;2023-03-24T07:26:43;5.88;;;4.70;;
17145;SDS011;8688;54.444;18.444;2023-03-24T07:29:11;6.55;;;4.95;;
17145;SDS011;8688;54.444;18.444;2023-03-24T07:31:38;7.30;;;4.53;;
17145;SDS011;8688;54.444;18.444;2023-03-24T07:34:07;7.10;;;4.50;;
17145;SDS011;8688;54.444;18.444;2023-03-24T07:36:35;7.38;;;4.03;;
17145;SDS011;8688;54.444;18.444;2023-03-24T07:39:02;6.68;;;4.10;;
17145;SDS011;8688;54.444;18.444;2023-03-24T07:41:30;7.53;;;4.43;;
17145;SDS011;8688;54.444;18.444;2023-03-24T07:43:58;5.78;;;4.30;;
17145;SDS011;8688;54.444;18.444;2023-03-24T07:46:25;7.18;;;4.57;;
17145;SDS011;8688;54.444;18.444;2023-03-24T07:48:53;9.25;;;4.70;;
17145;SDS011;8688;54.444;18.444;2023-03-24T07:51:22;8.40;;;4.85;;
17145;SDS011;8688;54.444;18.444;2023-03-24T07:53:49;5.97;;;4.43;;
17145;SDS011;8688;54.444;18.444;2023-03-24T07:56:17;7.35;;;4.35;;
17145;SDS011;8688;54.444;18.444;2023-03-24T07:58:44;8.68;;;4.43;;
17145;SDS011;8688;54.444;18.444;2023-03-24T08:01:12;6.60;;;4.22;;
17145;SDS011;8688;54.444;18.444;2023-03-24T08:03:39;6.28;;;4.30;;
17145;SDS011;8688;54.444;18.444;2023-03-24T08:06:08;6.47;;;4.05;;
17145;SDS011;8688;54.444;18.444;2023-03-24T08:08:37;8.73;;;4.57;;
17145;SDS011;8688;54.444;18.444;2023-03-24T08:11:05;8.05;;;4.07;;
17145;SDS011;8688;54.444;18.444;2023-03-24T08:13:32;8.10;;;4.35;;
17145;SDS011;8688;54.444;18.444;2023-03-24T08:16:00;5.65;;;3.83;;
17145;SDS011;8688;54.444;18.444;2023-03-24T08:18:28;7.57;;;4.40;;
17145;SDS011;8688;54.444;18.444;2023-03-24T08:20:59;7.05;;;4.32;;
17145;SDS011;8688;54.444;18.444;2023-03-24T08:23:26;5.15;;;3.75;;
17145;SDS011;8688;54.444;18.444;2023-03-24T08:25:55;6.53;;;4.45;;
17145;SDS011;8688;54.444;18.444;2023-03-24T08:28:23;5.35;;;4.00;;
17145;SDS011;8688;54.444;18.444;2023-03-24T08:30:50;6.38;;;4.18;;
17145;SDS011;8688;54.444;18.444;2023-03-24T08:33:18;7.93;;;4.65;;
17145;SDS011;8688;54.444;18.444;2023-03-24T08:35:45;6.28;;;4.72;;
17145;SDS011;8688;54.444;18.444;2023-03-24T08:38:12;7.47;;;4.63;;
17145;SDS011;8688;54.444;18.444;2023-03-24T08:40:40;6.22;;;5.05;;
17145;SDS011;8688;54.444;18.444;2023-03-24T08:43:11;6.05;;;4.78;;
17145;SDS011;8688;54.444;18.444;2023-03-24T08:45:40;8.98;;;5.70;;
17145;SDS011;8688;54.444;18.444;2023-03-24T08:48:08;7.88;;;5.43;;
17145;SDS011;8688;54.444;18.444;2023-03-24T08:50:36;7.53;;;5.70;;
17145;SDS011;8688;54.444;18.444;2023-03-24T08:53:05;7.30;;;5.22;;
17145;SDS011;8688;54.444;18.444;2023-03-24T08:55:33;8.65;;;5.85;;
17145;SDS011;8688;54.444;18.444;2023-03-24T08:58:02;8.55;;;5.07;;
17145;SDS011;8688;54.444;18.444;2023-03-24T09:00:31;9.20;;;5.50;;
17145;SDS011;8688;54.444;18.444;2023-03-24T09:02:58;9.18;;;5.80;;
17145;SDS011;8688;54.444;18.444;2023-03-24T09:05:26;8.82;;;5.63;;
17145;SDS011;8688;54.444;18.444;2023-03-24T09:07:53;7.82;;;5.78;;
17145;SDS011;8688;54.444;18.444;2023-03-24T09:10:21;9.05;;;6.07;;
17145;SDS011;8688;54.444;18.444;2023-03-24T09:12:48;9.18;;;6.28;;
17145;SDS011;8688;54.444;18.444;2023-03-24T09:15:17;9.13;;;6.22;;
17145;SDS011;8688;54.444;18.444;2023-03-24T09:17:46;8.85;;;6.60;;
17145;SDS011;8688;54.444;18.444;2023-03-24T09:20:13;8.02;;;6.28;;
17145;SDS011;8688;54.444;18.444;2023-03-24T09:22:43;8.63;;;6.38;;
17145;SDS011;8688;54.444;18.444;2023-03-24T09:25:12;10.13;;;6.05;;
17145;SDS011;8688;54.444;18.444;2023-03-24T09:27:41;9.48;;;6.78;;
17145;SDS011;8688;54.444;18.444;2023-03-24T09:30:09;10.07;;;6.40;;
17145;SDS011;8688;54.444;18.444;2023-03-24T09:32:38;9.02;;;6.50;;
17145;SDS011;8688;54.444;18.444;2023-03-24T09:35:07;13.23;;;6.22;;
17145;SDS011;8688;54.444;18.444;2023-03-24T09:37:36;9.68;;;6.40;;
17145;SDS011;8688;54.444;18.444;2023-03-24T09:40:04;9.70;;;5.82;;
17145;SDS011;8688;54.444;18.444;2023-03-24T09:42:33;8.35;;;5.88;;
17145;SDS011;8688;54.444;18.444;2023-03-24T09:45:04;7.93;;;5.93;;
17145;SDS011;8688;54.444;18.444;2023-03-24T09:47:35;8.00;;;5.97;;
17145;SDS011;8688;54.444;18.444;2023-03-24T09:50:08;8.20;;;5.88;;
17145;SDS011;8688;54.444;18.444;2023-03-24T09:52:46;11.05;;;6.13;;
17145;SDS011;8688;54.444;18.444;2023-03-24T09:55:18;7.13;;;5.22;;
17145;SDS011;8688;54.444;18.444;2023-03-24T09:57:49;9.02;;;5.68;;
17145;SDS011;8688;54.444;18.444;2023-03-24T10:00:19;7.90;;;5.88;;
17145;SDS011;8688;54.444;18.444;2023-03-24T10:02:49;9.75;;;5.70;;
17145;SDS011;8688;54.444;18.444;2023-03-24T10:05:20;10.07;;;6.10;;
17145;SDS011;8688;54.444;18.444;2023-03-24T10:07:53;8.68;;;5.47;;
17145;SDS011;8688;54.444;18.444;2023-03-24T10:10:26;9.95;;;5.82;;
17145;SDS011;8688;54.444;18.444;2023-03-24T10:13:02;8.88;;;6.07;;
17145;SDS011;8688;54.444;18.444;2023-03-24T10:15:34;7.30;;;5.63;;
17145;SDS011;8688;54.444;18.444;2023-03-24T10:18:13;6.60;;;5.82;;
17145;SDS011;8688;54.444;18.444;2023-03-24T10:20:53;9.63;;;6.70;;
17145;SDS011;8688;54.444;18.444;2023-03-24T10:23:26;10.35;;;6.75;;
17145;SDS011;8688;54.444;18.444;2023-03-24T10:26:02;11.02;;;7.15;;
17145;SDS011;8688;54.444;18.444;2023-03-24T10:28:37;11.73;;;7.57;;
17145;SDS011;8688;54.444;18.444;2023-03-24T10:31:10;9.70;;;7.35;;
17145;SDS011;8688;54.444;18.444;2023-03-24T10:33:41;10.88;;;7.53;;
17145;SDS011;8688;54.444;18.444;2023-03-24T10:36:13;8.68;;;7.40;;
17145;SDS011;8688;54.444;18.444;2023-03-24T10:38:43;10.93;;;7.55;;
17145;SDS011;8688;54.444;18.444;2023-03-24T10:41:12;9.13;;;6.82;;
17145;SDS011;8688;54.444;18.444;2023-03-24T10:43:43;8.98;;;7.45;;
17145;SDS011;8688;54.444;18.444;2023-03-24T10:46:11;11.07;;;8.00;;
17145;SDS011;8688;54.444;18.444;2023-03-24T10:48:42;9.50;;;7.20;;
17145;SDS011;8688;54.444;18.444;2023-03-24T10:51:16;11.00;;;6.85;;
17145;SDS011;8688;54.444;18.444;2023-03-24T10:53:45;9.07;;;7.10;;
17145;SDS011;8688;54.444;18.444;2023-03-24T10:56:15;9.82;;;7.20;;
17145;SDS011;8688;54.444;18.444;2023-03-24T10:58:44;7.93;;;6.88;;
17145;SDS011;8688;54.444;18.444;2023-03-24T11:01:20;10.20;;;6.82;;
17145;SDS011;8688;54.444;18.444;2023-03-24T11:03:57;10.13;;;6.70;;
17145;SDS011;8688;54.444;18.444;2023-03-24T11:06:29;8.90;;;6.70;;
17145;SDS011;8688;54.444;18.444;2023-03-24T11:09:07;9.07;;;6.93;;
17145;SDS011;8688;54.444;18.444;2023-03-24T11:11:36;10.02;;;6.38;;
17145;SDS011;8688;54.444;18.444;2023-03-24T11:14:08;9.10;;;6.18;;
17145;SDS011;8688;54.444;18.444;2023-03-24T11:16:47;8.45;;;6.25;;
17145;SDS011;8688;54.444;18.444;2023-03-24T11:19:18;10.38;;;6.30;;
17145;SDS011;8688;54.444;18.444;2023-03-24T11:21:50;13.07;;;6.57;;
17145;SDS011;8688;54.444;18.444;2023-03-24T11:24:18;7.50;;;6.35;;
17145;SDS011;8688;54.444;18.444;2023-03-24T11:26:48;8.20;;;6.40;;
17145;SDS011;8688;54.444;18.444;2023-03-24T11:29:23;8.43;;;5.75;;
17145;SDS011;8688;54.444;18.444;2023-03-24T11:31:53;8.20;;;5.90;;
17145;SDS011;8688;54.444;18.444;2023-03-24T11:34:23;7.85;;;5.53;;
17145;SDS011;8688;54.444;18.444;2023-03-24T11:37:00;7.95;;;5.60;;
17145;SDS011;8688;54.444;18.444;2023-03-24T11:39:30;6.97;;;5.10;;
17145;SDS011;8688;54.444;18.444;2023-03-24T11:42:00;5.65;;;4.72;;
17145;SDS011;8688;54.444;18.444;2023-03-24T11:44:45;9.55;;;5.07;;
17145;SDS011;8688;54.444;18.444;2023-03-24T11:47:16;6.78;;;5.05;;
17145;SDS011;8688;54.444;18.444;2023-03-24T11:49:50;5.93;;;4.72;;
17145;SDS011;8688;54.444;18.444;2023-03-24T11:52:26;7.10;;;5.03;;
17145;SDS011;8688;54.444;18.444;2023-03-24T11:54:57;7.00;;;4.78;;
17145;SDS011;8688;54.444;18.444;2023-03-24T11:57:33;6.78;;;4.53;;
17145;SDS011;8688;54.444;18.444;2023-03-24T12:00:12;5.70;;;4.30;;
17145;SDS011;8688;54.444;18.444;2023-03-24T12:02:48;7.45;;;4.88;;
17145;SDS011;8688;54.444;18.444;2023-03-24T12:05:32;5.90;;;4.10;;
17145;SDS011;8688;54.444;18.444;2023-03-24T12:11:01;5.03;;;3.40;;
17145;SDS011;8688;54.444;18.444;2023-03-24T12:13:34;4.15;;;3.40;;
17145;SDS011;8688;54.444;18.444;2023-03-24T12:16:11;6.07;;;3.38;;
17145;SDS011;8688;54.444;18.444;2023-03-24T12:19:05;3.75;;;3.10;;
17145;SDS011;8688;54.444;18.444;2023-03-24T12:21:51;3.60;;;3.22;;
17145;SDS011;8688;54.444;18.444;2023-03-24T12:24:29;4.82;;;3.00;;
17145;SDS011;8688;54.444;18.444;2023-03-24T12:27:13;4.40;;;3.03;;
17145;SDS011;8688;54.444;18.444;2023-03-24T12:29:51;4.50;;;3.33;;
17145;SDS011;8688;54.444;18.444;2023-03-24T12:32:30;4.05;;;3.33;;
17145;SDS011;8688;54.444;18.444;2023-03-24T12:38:20;5.20;;;3.35;;
17145;SDS011;8688;54.444;18.444;2023-03-24T12:41:07;5.68;;;3.55;;
17145;SDS011;8688;54.444;18.444;2023-03-24T12:43:47;4.57;;;3.20;;
17145;SDS011;8688;54.444;18.444;2023-03-24T12:46:30;5.22;;;3.38;;
17145;SDS011;8688;54.444;18.444;2023-03-24T12:49:11;5.32;;;3.20;;
17145;SDS011;8688;54.444;18.444;2023-03-24T12:51:51;5.65;;;3.50;;
17145;SDS011;8688;54.444;18.444;2023-03-24T12:54:31;4.00;;;3.20;;
17145;SDS011;8688;54.444;18.444;2023-03-24T12:57:08;5.75;;;3.38;;
17145;SDS011;8688;54.444;18.444;2023-03-24T12:59:40;4.43;;;3.50;;
17145;SDS011;8688;54.444;18.444;2023-03-24T13:02:15;5.60;;;3.50;;
17145;SDS011;8688;54.444;18.444;2023-03-24T13:04:48;7.45;;;3.65;;
17145;SDS011;8688;54.444;18.444;2023-03-24T13:07:18;6.35;;;3.78;;
17145;SDS011;8688;54.444;18.444;2023-03-24T13:09:51;5.45;;;3.60;;
17145;SDS011;8688;54.444;18.444;2023-03-24T13:12:28;4.40;;;3.75;;
17145;SDS011;8688;54.444;18.444;2023-03-24T13:15:02;6.32;;;3.70;;
17145;SDS011;8688;54.444;18.444;2023-03-24T13:17:33;5.13;;;3.63;;
17145;SDS011;8688;54.444;18.444;2023-03-24T13:20:11;5.00;;;3.55;;
17145;SDS011;8688;54.444;18.444;2023-03-24T13:22:39;4.60;;;3.33;;
17145;SDS011;8688;54.444;18.444;2023-03-24T13:25:08;6.85;;;3.67;;
17145;SDS011;8688;54.444;18.444;2023-03-24T13:27:50;4.25;;;2.80;;
17145;SDS011;8688;54.444;18.444;2023-03-24T13:30:25;5.22;;;2.75;;
17145;SDS011;8688;54.444;18.444;2023-03-24T13:32:58;3.97;;;3.30;;
17145;SDS011;8688;54.444;18.444;2023-03-24T13:35:39;5.32;;;3.60;;
17145;SDS011;8688;54.444;18.444;2023-03-24T13:38:23;4.57;;;3.58;;
17145;SDS011;8688;54.444;18.444;2023-03-24T13:40:56;5.05;;;3.65;;
17145;SDS011;8688;54.444;18.444;2023-03-24T13:43:27;3.40;;;3.10;;
17145;SDS011;8688;54.444;18.444;2023-03-24T13:45:57;4.80;;;3.83;;
17145;SDS011;8688;54.444;18.444;2023-03-24T13:48:31;4.60;;;3.72;;
17145;SDS011;8688;54.444;18.444;2023-03-24T13:51:02;5.75;;;4.53;;
17145;SDS011;8688;54.444;18.444;2023-03-24T13:53:37;5.07;;;3.30;;
17145;SDS011;8688;54.444;18.444;2023-03-24T13:56:08;5.30;;;3.38;;
17145;SDS011;8688;54.444;18.444;2023-03-24T13:58:47;5.20;;;3.50;;
17145;SDS011;8688;54.444;18.444;2023-03-24T14:01:31;6.38;;;3.15;;
17145;SDS011;8688;54.444;18.444;2023-03-24T14:06:49;5.53;;;2.85;;
17145;SDS011;8688;54.444;18.444;2023-03-24T14:09:18;5.68;;;3.28;;
17145;SDS011;8688;54.444;18.444;2023-03-24T14:17:47;3.20;;;2.53;;
17145;SDS011;8688;54.444;18.444;2023-03-24T14:20:26;3.53;;;2.40;;
17145;SDS011;8688;54.444;18.444;2023-03-24T14:22:57;4.25;;;2.50;;
17145;SDS011;8688;54.444;18.444;2023-03-24T14:25:26;5.45;;;2.90;;
17145;SDS011;8688;54.444;18.444;2023-03-24T14:28:05;3.35;;;2.75;;
17145;SDS011;8688;54.444;18.444;2023-03-24T14:30:55;3.63;;;2.67;;
17145;SDS011;8688;54.444;18.444;2023-03-24T14:33:28;4.13;;;2.80;;
17145;SDS011;8688;54.444;18.444;2023-03-24T14:35:57;2.97;;;2.58;;
17145;SDS011;8688;54.444;18.444;2023-03-24T14:38:29;5.15;;;2.63;;
17145;SDS011;8688;54.444;18.444;2023-03-24T14:41:05;3.63;;;2.60;;
17145;SDS011;8688;54.444;18.444;2023-03-24T14:43:54;3.60;;;2.55;;
17145;SDS011;8688;54.444;18.444;2023-03-24T14:46:33;2.80;;;2.45;;
17145;SDS011;8688;54.444;18.444;2023-03-24T14:49:17;4.65;;;2.40;;
17145;SDS011;8688;54.444;18.444;2023-03-24T14:51:54;5.18;;;2.97;;
17145;SDS011;8688;54.444;18.444;2023-03-24T14:54:30;4.07;;;2.60;;
17145;SDS011;8688;54.444;18.444;2023-03-24T14:57:02;3.70;;;2.90;;
17145;SDS011;8688;54.444;18.444;2023-03-24T14:59:37;4.30;;;2.80;;
17145;SDS011;8688;54.444;18.444;2023-03-24T15:02:17;4.18;;;3.00;;
17145;SDS011;8688;54.444;18.444;2023-03-24T15:08:02;4.15;;;2.80;;
17145;SDS011;8688;54.444;18.444;2023-03-24T15:10:36;4.10;;;2.67;;
17145;SDS011;8688;54.444;18.444;2023-03-24T15:13:30;3.88;;;2.83;;
17145;SDS011;8688;54.444;18.444;2023-03-24T15:16:00;3.90;;;2.72;;
17145;SDS011;8688;54.444;18.444;2023-03-24T15:18:32;4.47;;;3.15;;
17145;SDS011;8688;54.444;18.444;2023-03-24T15:21:00;4.35;;;2.50;;
17145;SDS011;8688;54.444;18.444;2023-03-24T15:23:38;3.45;;;2.65;;
17145;SDS011;8688;54.444;18.444;2023-03-24T15:26:10;5.68;;;3.60;;
17145;SDS011;8688;54.444;18.444;2023-03-24T15:28:38;5.60;;;3.50;;
17145;SDS011;8688;54.444;18.444;2023-03-24T15:31:06;8.15;;;5.13;;
17145;SDS011;8688;54.444;18.444;2023-03-24T15:33:39;7.53;;;4.75;;
17145;SDS011;8688;54.444;18.444;2023-03-24T15:36:12;5.75;;;2.08;;